Terminal Aerodrome Forecast
Issued by NWS Mt. Holly, NJ

Home | Current Version | Previous Version | Text Only | Print | Product List | Glossary On
Versions: 1 2 3 4 5 6 7 8 9 10 11 12 13 14 15 16 17 18 19 20 21 22 23
105
FTUS41 KPHI 310527
TAFPHL
TAF
KPHL 310527Z 3106/0112 24005KT P6SM BKN015
      TEMPO 3108/3112 3SM BR
     FM311200 34005KT P6SM FEW040
     FM311900 VRB05KT P6SM FEW040=

USA.gov is the U.S. government's official web portal to all federal, state and local government web resources and services.